sensor_id;sensor_type;location;lat;lon;timestamp;pressure;altitude;pressure_sealevel;temperature;humidity
11017;BME280;54687;50.800;6.772;2023-03-23T00:02:01;61046.78;;;-144.06;55.89
11017;BME280;54687;50.800;6.772;2023-03-23T00:04:28;60996.50;;;-144.06;56.01
11017;BME280;54687;50.800;6.772;2023-03-23T00:06:55;61046.78;;;-144.06;56.03
11017;BME280;54687;50.800;6.772;2023-03-23T00:09:23;61017.44;;;-144.06;56.02
11017;BME280;54687;50.800;6.772;2023-03-23T00:11:50;61013.25;;;-144.06;56.20
11017;BME280;54687;50.800;6.772;2023-03-23T00:14:22;61030.03;;;-144.06;56.41
11017;BME280;54687;50.800;6.772;2023-03-23T00:16:50;61040.50;;;-144.06;56.42
11017;BME280;54687;50.800;6.772;2023-03-23T00:19:17;61038.41;;;-144.06;56.45
11017;BME280;54687;50.800;6.772;2023-03-23T00:21:45;61009.06;;;-144.06;56.44
11017;BME280;54687;50.800;6.772;2023-03-23T00:24:13;61027.94;;;-144.06;56.36
11017;BME280;54687;50.800;6.772;2023-03-23T00:26:43;60986.00;;;-144.06;56.42
11017;BME280;54687;50.800;6.772;2023-03-23T00:29:12;61013.25;;;-144.06;56.78
11017;BME280;54687;50.800;6.772;2023-03-23T00:31:39;61080.34;;;-144.06;56.37
11017;BME280;54687;50.800;6.772;2023-03-23T00:34:06;61013.25;;;-144.06;56.17
11017;BME280;54687;50.800;6.772;2023-03-23T00:36:34;61063.56;;;-144.06;56.17
11017;BME280;54687;50.800;6.772;2023-03-23T00:39:08;61019.53;;;-144.06;55.97
11017;BME280;54687;50.800;6.772;2023-03-23T00:41:34;61042.59;;;-144.06;55.94
11017;BME280;54687;50.800;6.772;2023-03-23T00:44:03;60996.50;;;-144.06;55.60
11017;BME280;54687;50.800;6.772;2023-03-23T00:46:29;61034.22;;;-144.06;55.61
11017;BME280;54687;50.800;6.772;2023-03-23T00:48:56;61025.84;;;-144.06;55.34
11017;BME280;54687;50.800;6.772;2023-03-23T00:51:23;61004.88;;;-144.06;55.43
11017;BME280;54687;50.800;6.772;2023-03-23T00:53:50;61051.00;;;-144.06;55.43
11017;BME280;54687;50.800;6.772;2023-03-23T00:56:17;61023.75;;;-144.06;55.35
11017;BME280;54687;50.800;6.772;2023-03-23T00:58:44;61030.03;;;-144.06;55.52
11017;BME280;54687;50.800;6.772;2023-03-23T01:01:12;61011.16;;;-144.06;55.85
11017;BME280;54687;50.800;6.772;2023-03-23T01:03:41;60996.50;;;-144.06;55.98
11017;BME280;54687;50.800;6.772;2023-03-23T01:06:09;61013.25;;;-144.06;55.93
11017;BME280;54687;50.800;6.772;2023-03-23T01:08:39;60988.09;;;-144.06;56.02
11017;BME280;54687;50.800;6.772;2023-03-23T01:11:12;61030.03;;;-144.06;56.09
11017;BME280;54687;50.800;6.772;2023-03-23T01:13:39;61019.53;;;-144.06;56.14
11017;BME280;54687;50.800;6.772;2023-03-23T01:16:06;61015.34;;;-144.06;56.09
11017;BME280;54687;50.800;6.772;2023-03-23T01:18:34;61000.69;;;-144.06;56.07
11017;BME280;54687;50.800;6.772;2023-03-23T01:21:03;61023.75;;;-144.06;56.08
11017;BME280;54687;50.800;6.772;2023-03-23T01:23:31;61030.03;;;-144.06;56.16
11017;BME280;54687;50.800;6.772;2023-03-23T01:26:02;61004.88;;;-144.06;56.06
11017;BME280;54687;50.800;6.772;2023-03-23T01:28:29;61030.03;;;-144.06;56.13
11017;BME280;54687;50.800;6.772;2023-03-23T01:30:59;61017.44;;;-144.06;56.06
11017;BME280;54687;50.800;6.772;2023-03-23T01:33:26;61019.53;;;-144.06;56.02
11017;BME280;54687;50.800;6.772;2023-03-23T01:35:53;61004.88;;;-144.06;56.14
11017;BME280;54687;50.800;6.772;2023-03-23T01:38:20;61053.09;;;-144.06;56.09
11017;BME280;54687;50.800;6.772;2023-03-23T01:40:47;61021.63;;;-144.06;56.68
11017;BME280;54687;50.800;6.772;2023-03-23T01:43:15;61025.84;;;-144.06;56.75
11017;BME280;54687;50.800;6.772;2023-03-23T01:45:42;61023.75;;;-144.06;57.06
11017;BME280;54687;50.800;6.772;2023-03-23T01:48:14;61046.78;;;-144.06;57.08
11017;BME280;54687;50.800;6.772;2023-03-23T01:50:47;61009.06;;;-144.06;57.22
11017;BME280;54687;50.800;6.772;2023-03-23T01:53:17;61009.06;;;-144.06;57.38
11017;BME280;54687;50.800;6.772;2023-03-23T01:55:44;61038.41;;;-144.06;57.45
11017;BME280;54687;50.800;6.772;2023-03-23T01:58:14;61051.00;;;-144.06;57.39
11017;BME280;54687;50.800;6.772;2023-03-23T02:00:43;61000.69;;;-144.06;57.64
11017;BME280;54687;50.800;6.772;2023-03-23T02:03:11;61021.63;;;-144.06;57.56
11017;BME280;54687;50.800;6.772;2023-03-23T02:05:40;61034.22;;;-144.06;57.61
11017;BME280;54687;50.800;6.772;2023-03-23T02:08:08;61067.75;;;-144.06;57.67
11017;BME280;54687;50.800;6.772;2023-03-23T02:10:37;61071.94;;;-144.06;57.68
11017;BME280;54687;50.800;6.772;2023-03-23T02:13:06;61065.66;;;-144.06;57.54
11017;BME280;54687;50.800;6.772;2023-03-23T02:15:40;61027.94;;;-144.06;57.62
11017;BME280;54687;50.800;6.772;2023-03-23T02:18:19;61076.13;;;-144.06;57.76
11017;BME280;54687;50.800;6.772;2023-03-23T02:21:13;61055.19;;;-144.06;57.86
11017;BME280;54687;50.800;6.772;2023-03-23T02:24:10;60983.91;;;-144.06;57.95
11017;BME280;54687;50.800;6.772;2023-03-23T02:26:50;61067.75;;;-144.06;58.53
11017;BME280;54687;50.800;6.772;2023-03-23T02:29:59;61059.38;;;-144.06;58.95
11017;BME280;54687;50.800;6.772;2023-03-23T02:32:51;61034.22;;;-144.06;59.45
11017;BME280;54687;50.800;6.772;2023-03-23T02:35:29;61063.56;;;-144.06;59.38
11017;BME280;54687;50.800;6.772;2023-03-23T02:37:59;61048.88;;;-144.06;59.67
11017;BME280;54687;50.800;6.772;2023-03-23T02:40:30;61051.00;;;-144.06;59.67
11017;BME280;54687;50.800;6.772;2023-03-23T02:43:00;61030.03;;;-144.06;59.61
11017;BME280;54687;50.800;6.772;2023-03-23T02:45:29;61071.94;;;-144.06;59.71
11017;BME280;54687;50.800;6.772;2023-03-23T02:47:58;61074.03;;;-144.06;60.16
11017;BME280;54687;50.800;6.772;2023-03-23T02:50:29;61036.31;;;-144.06;60.08
11017;BME280;54687;50.800;6.772;2023-03-23T02:52:58;61055.19;;;-144.06;59.95
11017;BME280;54687;50.800;6.772;2023-03-23T02:55:27;61027.94;;;-144.06;60.04
11017;BME280;54687;50.800;6.772;2023-03-23T02:57:55;61101.28;;;-144.06;59.92
11017;BME280;54687;50.800;6.772;2023-03-23T03:00:22;61059.38;;;-144.06;60.04
11017;BME280;54687;50.800;6.772;2023-03-23T03:02:50;61038.41;;;-144.06;59.91
11017;BME280;54687;50.800;6.772;2023-03-23T03:05:26;61063.56;;;-144.06;59.94
11017;BME280;54687;50.800;6.772;2023-03-23T03:08:03;61051.00;;;-144.06;59.80
11017;BME280;54687;50.800;6.772;2023-03-23T03:10:37;61019.53;;;-144.06;59.94
11017;BME280;54687;50.800;6.772;2023-03-23T03:13:12;61017.44;;;-144.06;59.94
11017;BME280;54687;50.800;6.772;2023-03-23T03:15:44;61034.22;;;-144.06;59.99
11017;BME280;54687;50.800;6.772;2023-03-23T03:18:14;61059.38;;;-144.06;59.80
11017;BME280;54687;50.800;6.772;2023-03-23T03:20:44;61040.50;;;-144.06;59.99
11017;BME280;54687;50.800;6.772;2023-03-23T03:23:15;61067.75;;;-144.06;59.88
11017;BME280;54687;50.800;6.772;2023-03-23T03:25:44;61059.38;;;-144.06;60.20
11017;BME280;54687;50.800;6.772;2023-03-23T03:28:16;61074.03;;;-144.06;60.38
11017;BME280;54687;50.800;6.772;2023-03-23T03:30:47;61002.78;;;-144.06;60.06
11017;BME280;54687;50.800;6.772;2023-03-23T03:33:16;61038.41;;;-144.06;60.09
11017;BME280;54687;50.800;6.772;2023-03-23T03:35:46;61030.03;;;-144.06;60.16
11017;BME280;54687;50.800;6.772;2023-03-23T03:38:15;61061.47;;;-144.06;60.33
11017;BME280;54687;50.800;6.772;2023-03-23T03:40:42;61063.56;;;-144.06;60.30
11017;BME280;54687;50.800;6.772;2023-03-23T03:43:08;61042.59;;;-144.06;60.13
11017;BME280;54687;50.800;6.772;2023-03-23T03:45:35;61071.94;;;-144.06;60.46
11017;BME280;54687;50.800;6.772;2023-03-23T03:48:02;60979.72;;;-144.06;60.21
11017;BME280;54687;50.800;6.772;2023-03-23T03:50:28;61046.78;;;-144.06;60.11
11017;BME280;54687;50.800;6.772;2023-03-23T03:52:55;61032.13;;;-144.06;60.01
11017;BME280;54687;50.800;6.772;2023-03-23T03:55:23;61076.13;;;-144.06;60.00
11017;BME280;54687;50.800;6.772;2023-03-23T03:57:50;61042.59;;;-144.06;59.98
11017;BME280;54687;50.800;6.772;2023-03-23T04:00:17;61011.16;;;-144.06;59.62
11017;BME280;54687;50.800;6.772;2023-03-23T04:02:46;61109.69;;;-144.06;59.55
11017;BME280;54687;50.800;6.772;2023-03-23T04:05:17;61042.59;;;-144.06;59.63
11017;BME280;54687;50.800;6.772;2023-03-23T04:07:45;61074.03;;;-144.06;59.77
11017;BME280;54687;50.800;6.772;2023-03-23T04:10:15;61105.50;;;-144.06;59.86
11017;BME280;54687;50.800;6.772;2023-03-23T04:12:43;61074.03;;;-144.06;59.84
11017;BME280;54687;50.800;6.772;2023-03-23T04:15:10;61051.00;;;-144.06;59.95
11017;BME280;54687;50.800;6.772;2023-03-23T04:17:36;61038.41;;;-144.06;59.93
11017;BME280;54687;50.800;6.772;2023-03-23T04:20:04;61051.00;;;-144.06;60.17
11017;BME280;54687;50.800;6.772;2023-03-23T04:22:34;61067.75;;;-144.06;60.18
11017;BME280;54687;50.800;6.772;2023-03-23T04:25:01;61071.94;;;-144.06;60.39
11017;BME280;54687;50.800;6.772;2023-03-23T04:27:31;61036.31;;;-144.06;60.53
11017;BME280;54687;50.800;6.772;2023-03-23T04:29:59;61059.38;;;-144.06;60.50
11017;BME280;54687;50.800;6.772;2023-03-23T04:32:27;61042.59;;;-144.06;60.58
11017;BME280;54687;50.800;6.772;2023-03-23T04:34:56;61097.09;;;-144.06;60.63
11017;BME280;54687;50.800;6.772;2023-03-23T04:37:23;61063.56;;;-144.06;60.58
11017;BME280;54687;50.800;6.772;2023-03-23T04:39:54;61051.00;;;-144.06;60.71
11017;BME280;54687;50.800;6.772;2023-03-23T04:42:26;61055.19;;;-144.06;60.92
11017;BME280;54687;50.800;6.772;2023-03-23T04:44:53;61059.38;;;-144.06;61.24
11017;BME280;54687;50.800;6.772;2023-03-23T04:47:21;61046.78;;;-144.06;61.09
11017;BME280;54687;50.800;6.772;2023-03-23T04:49:47;61059.38;;;-144.06;61.14
11017;BME280;54687;50.800;6.772;2023-03-23T04:52:14;61030.03;;;-144.06;61.15
11017;BME280;54687;50.800;6.772;2023-03-23T04:54:40;61042.59;;;-144.06;61.25
11017;BME280;54687;50.800;6.772;2023-03-23T04:57:08;61071.94;;;-144.06;61.31
11017;BME280;54687;50.800;6.772;2023-03-23T04:59:34;61067.75;;;-144.06;61.30
11017;BME280;54687;50.800;6.772;2023-03-23T05:02:01;61055.19;;;-144.06;61.14
11017;BME280;54687;50.800;6.772;2023-03-23T05:04:29;61042.59;;;-144.06;61.24
11017;BME280;54687;50.800;6.772;2023-03-23T05:06:55;61078.25;;;-144.06;60.94
11017;BME280;54687;50.800;6.772;2023-03-23T05:09:22;61040.50;;;-144.06;60.78
11017;BME280;54687;50.800;6.772;2023-03-23T05:11:48;61057.28;;;-144.06;60.43
11017;BME280;54687;50.800;6.772;2023-03-23T05:14:15;61051.00;;;-144.06;60.31
11017;BME280;54687;50.800;6.772;2023-03-23T05:16:42;61044.69;;;-144.06;60.06
11017;BME280;54687;50.800;6.772;2023-03-23T05:19:12;61030.03;;;-144.06;59.96
11017;BME280;54687;50.800;6.772;2023-03-23T05:21:40;61038.41;;;-144.06;59.92
11017;BME280;54687;50.800;6.772;2023-03-23T05:24:07;61067.75;;;-144.06;59.48
11017;BME280;54687;50.800;6.772;2023-03-23T05:26:33;61101.28;;;-144.06;59.49
11017;BME280;54687;50.800;6.772;2023-03-23T05:29:00;61053.09;;;-144.06;59.42
11017;BME280;54687;50.800;6.772;2023-03-23T05:31:27;61071.94;;;-144.06;59.25
11017;BME280;54687;50.800;6.772;2023-03-23T05:33:53;61055.19;;;-144.06;58.96
11017;BME280;54687;50.800;6.772;2023-03-23T05:36:20;61042.59;;;-144.06;58.81
11017;BME280;54687;50.800;6.772;2023-03-23T05:38:50;61025.84;;;-144.06;58.59
11017;BME280;54687;50.800;6.772;2023-03-23T05:41:17;61021.63;;;-144.06;58.47
11017;BME280;54687;50.800;6.772;2023-03-23T05:43:44;61048.88;;;-144.06;58.43
11017;BME280;54687;50.800;6.772;2023-03-23T05:46:10;61065.66;;;-144.06;57.99
11017;BME280;54687;50.800;6.772;2023-03-23T05:48:37;61034.22;;;-144.06;57.84
11017;BME280;54687;50.800;6.772;2023-03-23T05:51:04;61025.84;;;-144.06;57.45
11017;BME280;54687;50.800;6.772;2023-03-23T05:53:31;61040.50;;;-144.06;56.89
11017;BME280;54687;50.800;6.772;2023-03-23T05:56:01;61048.88;;;-144.06;57.05
11017;BME280;54687;50.800;6.772;2023-03-23T05:58:29;61027.94;;;-144.06;57.08
11017;BME280;54687;50.800;6.772;2023-03-23T06:00:56;61067.75;;;-144.06;57.04
11017;BME280;54687;50.800;6.772;2023-03-23T06:03:23;61038.41;;;-144.06;57.04
11017;BME280;54687;50.800;6.772;2023-03-23T06:05:50;61025.84;;;-144.06;57.04
11017;BME280;54687;50.800;6.772;2023-03-23T06:08:17;61002.78;;;-144.06;56.88
11017;BME280;54687;50.800;6.772;2023-03-23T06:10:44;60992.28;;;-144.06;57.14
11017;BME280;54687;50.800;6.772;2023-03-23T06:13:12;61067.75;;;-144.06;56.88
11017;BME280;54687;50.800;6.772;2023-03-23T06:15:39;61017.44;;;-144.06;56.85
11017;BME280;54687;50.800;6.772;2023-03-23T06:18:06;61042.59;;;-144.06;56.67
11017;BME280;54687;50.800;6.772;2023-03-23T06:20:33;60994.38;;;-144.06;56.54
11017;BME280;54687;50.800;6.772;2023-03-23T06:23:00;61011.16;;;-144.06;56.21
11017;BME280;54687;50.800;6.772;2023-03-23T06:25:28;61034.22;;;-144.06;56.19
11017;BME280;54687;50.800;6.772;2023-03-23T06:27:55;61040.50;;;-144.06;56.05
11017;BME280;54687;50.800;6.772;2023-03-23T06:30:23;61034.22;;;-144.06;55.86
11017;BME280;54687;50.800;6.772;2023-03-23T06:32:49;61046.78;;;-144.06;55.58
11017;BME280;54687;50.800;6.772;2023-03-23T06:35:16;61046.78;;;-144.06;55.44
11017;BME280;54687;50.800;6.772;2023-03-23T06:37:43;61032.13;;;-144.06;55.45
11017;BME280;54687;50.800;6.772;2023-03-23T06:40:10;61038.41;;;-144.06;55.30
11017;BME280;54687;50.800;6.772;2023-03-23T06:42:37;60998.59;;;-144.06;55.02
11017;BME280;54687;50.800;6.772;2023-03-23T06:45:06;61017.44;;;-144.06;54.72
11017;BME280;54687;50.800;6.772;2023-03-23T06:47:35;61030.03;;;-144.06;54.63
11017;BME280;54687;50.800;6.772;2023-03-23T06:50:02;61025.84;;;-144.06;54.23
11017;BME280;54687;50.800;6.772;2023-03-23T06:52:29;60983.91;;;-144.06;54.39
11017;BME280;54687;50.800;6.772;2023-03-23T06:54:55;60996.50;;;-144.06;54.24
11017;BME280;54687;50.800;6.772;2023-03-23T06:57:22;60996.50;;;-144.06;54.19
11017;BME280;54687;50.800;6.772;2023-03-23T06:59:48;61013.25;;;-144.06;54.15
11017;BME280;54687;50.800;6.772;2023-03-23T07:02:15;61009.06;;;-144.06;54.26
11017;BME280;54687;50.800;6.772;2023-03-23T07:04:43;60954.56;;;-144.06;54.22
11017;BME280;54687;50.800;6.772;2023-03-23T07:07:11;60998.59;;;-144.06;53.99
11017;BME280;54687;50.800;6.772;2023-03-23T07:09:40;61034.22;;;-144.06;53.89
11017;BME280;54687;50.800;6.772;2023-03-23T07:12:07;60983.91;;;-144.06;53.40
11017;BME280;54687;50.800;6.772;2023-03-23T07:14:35;61009.06;;;-144.06;52.88
11017;BME280;54687;50.800;6.772;2023-03-23T07:17:02;61013.25;;;-144.06;52.68
11017;BME280;54687;50.800;6.772;2023-03-23T07:19:29;60996.50;;;-144.06;52.28
11017;BME280;54687;50.800;6.772;2023-03-23T07:21:57;60971.34;;;-144.06;52.27
11017;BME280;54687;50.800;6.772;2023-03-23T07:24:24;61017.44;;;-144.06;52.04
11017;BME280;54687;50.800;6.772;2023-03-23T07:26:51;61004.88;;;-144.06;51.70
11017;BME280;54687;50.800;6.772;2023-03-23T07:29:18;61004.88;;;-144.06;51.60
11017;BME280;54687;50.800;6.772;2023-03-23T07:31:44;61000.69;;;-144.06;51.48
11017;BME280;54687;50.800;6.772;2023-03-23T07:34:11;61011.16;;;-144.06;51.17
11017;BME280;54687;50.800;6.772;2023-03-23T07:36:38;60975.53;;;-144.06;51.23
11017;BME280;54687;50.800;6.772;2023-03-23T07:39:06;61000.69;;;-144.06;51.01
11017;BME280;54687;50.800;6.772;2023-03-23T07:41:33;61000.69;;;-144.06;50.93
11017;BME280;54687;50.800;6.772;2023-03-23T07:43:59;60954.56;;;-144.06;50.67
11017;BME280;54687;50.800;6.772;2023-03-23T07:46:26;61004.88;;;-144.06;50.50
11017;BME280;54687;50.800;6.772;2023-03-23T07:48:53;60981.81;;;-144.06;50.47
11017;BME280;54687;50.800;6.772;2023-03-23T07:51:19;60979.72;;;-144.06;50.26
11017;BME280;54687;50.800;6.772;2023-03-23T07:53:46;60996.50;;;-144.06;49.86
11017;BME280;54687;50.800;6.772;2023-03-23T07:56:14;60983.91;;;-144.06;49.64
11017;BME280;54687;50.800;6.772;2023-03-23T07:58:44;60958.75;;;-144.06;49.48
11017;BME280;54687;50.800;6.772;2023-03-23T08:01:11;60967.13;;;-144.06;49.35
11017;BME280;54687;50.800;6.772;2023-03-23T08:03:38;60965.03;;;-144.06;49.05
11017;BME280;54687;50.800;6.772;2023-03-23T08:06:05;60946.19;;;-144.06;48.92
11017;BME280;54687;50.800;6.772;2023-03-23T08:08:32;60958.75;;;-144.06;48.79
11017;BME280;54687;50.800;6.772;2023-03-23T08:10:59;60971.34;;;-144.06;48.39
11017;BME280;54687;50.800;6.772;2023-03-23T08:13:27;60933.59;;;-144.06;48.34
11017;BME280;54687;50.800;6.772;2023-03-23T08:15:54;60944.09;;;-144.06;48.10
11017;BME280;54687;50.800;6.772;2023-03-23T08:18:22;60929.41;;;-144.06;48.03
11017;BME280;54687;50.800;6.772;2023-03-23T08:20:50;60925.22;;;-144.06;47.90
11017;BME280;54687;50.800;6.772;2023-03-23T08:23:19;60921.03;;;-144.06;47.51
11017;BME280;54687;50.800;6.772;2023-03-23T08:25:47;60939.88;;;-144.06;46.94
11017;BME280;54687;50.800;6.772;2023-03-23T08:28:14;60929.41;;;-144.06;47.32
11017;BME280;54687;50.800;6.772;2023-03-23T08:30:42;60946.19;;;-144.06;47.44
11017;BME280;54687;50.800;6.772;2023-03-23T08:33:09;60967.13;;;-144.06;47.09
11017;BME280;54687;50.800;6.772;2023-03-23T08:35:37;60948.28;;;-144.06;47.57
11017;BME280;54687;50.800;6.772;2023-03-23T08:38:04;60908.44;;;-144.06;47.54
11017;BME280;54687;50.800;6.772;2023-03-23T08:40:31;60914.72;;;-144.06;47.09
11017;BME280;54687;50.800;6.772;2023-03-23T08:42:58;60956.66;;;-144.06;47.13
11017;BME280;54687;50.800;6.772;2023-03-23T08:45:25;60912.63;;;-144.06;47.13
11017;BME280;54687;50.800;6.772;2023-03-23T08:47:55;60939.88;;;-144.06;46.61
11017;BME280;54687;50.800;6.772;2023-03-23T08:50:25;60904.25;;;-144.06;46.33
11017;BME280;54687;50.800;6.772;2023-03-23T08:52:53;60929.41;;;-144.06;46.53
11017;BME280;54687;50.800;6.772;2023-03-23T08:55:20;60904.25;;;-144.06;46.35
11017;BME280;54687;50.800;6.772;2023-03-23T08:57:48;60921.03;;;-144.06;46.27
11017;BME280;54687;50.800;6.772;2023-03-23T09:00:19;60914.72;;;-144.06;46.21
11017;BME280;54687;50.800;6.772;2023-03-23T09:02:47;60879.09;;;-144.06;45.91
11017;BME280;54687;50.800;6.772;2023-03-23T09:05:16;60895.88;;;-144.06;45.82
11017;BME280;54687;50.800;6.772;2023-03-23T09:07:45;60916.84;;;-144.06;45.23
11017;BME280;54687;50.800;6.772;2023-03-23T09:10:13;60895.88;;;-144.06;44.54
11017;BME280;54687;50.800;6.772;2023-03-23T09:12:41;60895.88;;;-144.06;44.79
11017;BME280;54687;50.800;6.772;2023-03-23T09:15:11;60897.97;;;-144.06;44.49
11017;BME280;54687;50.800;6.772;2023-03-23T09:17:43;60904.25;;;-144.06;44.90
11017;BME280;54687;50.800;6.772;2023-03-23T09:20:12;60872.81;;;-144.06;44.13
11017;BME280;54687;50.800;6.772;2023-03-23T09:22:44;60904.25;;;-144.06;43.85
11017;BME280;54687;50.800;6.772;2023-03-23T09:25:12;60897.97;;;-144.06;43.17
11017;BME280;54687;50.800;6.772;2023-03-23T09:27:40;60906.34;;;-144.06;43.27
11017;BME280;54687;50.800;6.772;2023-03-23T09:30:10;60843.47;;;-144.06;42.98
11017;BME280;54687;50.800;6.772;2023-03-23T09:32:37;60916.84;;;-144.06;42.68
11017;BME280;54687;50.800;6.772;2023-03-23T09:35:07;60946.19;;;-144.06;43.34
11017;BME280;54687;50.800;6.772;2023-03-23T09:37:37;60872.81;;;-144.06;43.25
11017;BME280;54687;50.800;6.772;2023-03-23T09:40:10;60906.34;;;-144.06;43.66
11017;BME280;54687;50.800;6.772;2023-03-23T09:42:51;60918.94;;;-144.06;44.13
11017;BME280;54687;50.800;6.772;2023-03-23T09:45:24;60891.69;;;-144.06;44.37
11017;BME280;54687;50.800;6.772;2023-03-23T09:48:04;60925.22;;;-144.06;44.77
11017;BME280;54687;50.800;6.772;2023-03-23T09:50:33;60929.41;;;-144.06;45.11
11017;BME280;54687;50.800;6.772;2023-03-23T09:53:04;60912.63;;;-144.06;45.18
11017;BME280;54687;50.800;6.772;2023-03-23T09:55:37;60900.06;;;-144.06;45.15
11017;BME280;54687;50.800;6.772;2023-03-23T09:58:11;60895.88;;;-144.06;45.09
11017;BME280;54687;50.800;6.772;2023-03-23T10:00:44;60927.31;;;-144.06;44.65
11017;BME280;54687;50.800;6.772;2023-03-23T10:03:14;60895.88;;;-144.06;44.41
11017;BME280;54687;50.800;6.772;2023-03-23T10:05:43;60908.44;;;-144.06;44.10
11017;BME280;54687;50.800;6.772;2023-03-23T10:08:13;60927.31;;;-144.06;44.11
11017;BME280;54687;50.800;6.772;2023-03-23T10:10:53;60908.44;;;-144.06;44.20
11017;BME280;54687;50.800;6.772;2023-03-23T10:13:31;60872.81;;;-144.06;44.30
11017;BME280;54687;50.800;6.772;2023-03-23T10:16:01;60885.38;;;-144.06;44.81
11017;BME280;54687;50.800;6.772;2023-03-23T10:18:33;60885.38;;;-144.06;45.17
11017;BME280;54687;50.800;6.772;2023-03-23T10:21:01;60868.63;;;-144.06;45.33
11017;BME280;54687;50.800;6.772;2023-03-23T10:23:41;60835.09;;;-144.06;45.38
11017;BME280;54687;50.800;6.772;2023-03-23T10:29:04;60893.78;;;-144.06;46.17
11017;BME280;54687;50.800;6.772;2023-03-23T10:31:38;60887.47;;;-144.06;45.58
11017;BME280;54687;50.800;6.772;2023-03-23T10:34:11;60874.91;;;-144.06;45.25
11017;BME280;54687;50.800;6.772;2023-03-23T10:36:51;60866.53;;;-144.06;44.90
11017;BME280;54687;50.800;6.772;2023-03-23T10:39:21;60816.22;;;-144.06;45.11
11017;BME280;54687;50.800;6.772;2023-03-23T10:41:49;60864.44;;;-144.06;44.86
11017;BME280;54687;50.800;6.772;2023-03-23T10:44:19;60862.34;;;-144.06;44.29
11017;BME280;54687;50.800;6.772;2023-03-23T10:46:53;60856.03;;;-144.06;43.83
11017;BME280;54687;50.800;6.772;2023-03-23T10:49:25;60833.00;;;-144.06;43.53
11017;BME280;54687;50.800;6.772;2023-03-23T10:51:57;60843.47;;;-144.06;43.94
11017;BME280;54687;50.800;6.772;2023-03-23T10:54:27;60866.53;;;-144.06;43.68
11017;BME280;54687;50.800;6.772;2023-03-23T10:56:55;60856.03;;;-144.06;43.70
11017;BME280;54687;50.800;6.772;2023-03-23T10:59:27;60849.75;;;-144.06;43.42
11017;BME280;54687;50.800;6.772;2023-03-23T11:01:55;60845.56;;;-144.06;43.04
11017;BME280;54687;50.800;6.772;2023-03-23T11:04:25;60812.03;;;-144.06;42.79
11017;BME280;54687;50.800;6.772;2023-03-23T11:06:57;60812.03;;;-144.06;42.83
11017;BME280;54687;50.800;6.772;2023-03-23T11:09:34;60826.69;;;-144.06;42.27
11017;BME280;54687;50.800;6.772;2023-03-23T11:12:02;60835.09;;;-144.06;42.38
11017;BME280;54687;50.800;6.772;2023-03-23T11:14:31;60851.84;;;-144.06;42.36
11017;BME280;54687;50.800;6.772;2023-03-23T11:16:59;60835.09;;;-144.06;42.16
11017;BME280;54687;50.800;6.772;2023-03-23T11:19:29;60807.84;;;-144.06;41.81
11017;BME280;54687;50.800;6.772;2023-03-23T11:21:59;60812.03;;;-144.06;42.00
11017;BME280;54687;50.800;6.772;2023-03-23T11:24:27;60801.53;;;-144.06;41.82
11017;BME280;54687;50.800;6.772;2023-03-23T11:26:57;60820.41;;;-144.06;41.84
11017;BME280;54687;50.800;6.772;2023-03-23T11:29:27;60833.00;;;-144.06;41.70
11017;BME280;54687;50.800;6.772;2023-03-23T11:32:03;60853.94;;;-144.06;42.01
11017;BME280;54687;50.800;6.772;2023-03-23T11:34:34;60845.56;;;-144.06;42.53
11017;BME280;54687;50.800;6.772;2023-03-23T11:37:05;60799.44;;;-144.06;42.58
11017;BME280;54687;50.800;6.772;2023-03-23T11:39:45;60843.47;;;-144.06;42.72
11017;BME280;54687;50.800;6.772;2023-03-23T11:42:17;60803.66;;;-144.06;42.94
11017;BME280;54687;50.800;6.772;2023-03-23T11:44:46;60770.09;;;-144.06;42.97
11017;BME280;54687;50.800;6.772;2023-03-23T11:47:20;60807.84;;;-144.06;42.80
11017;BME280;54687;50.800;6.772;2023-03-23T11:49:55;60807.84;;;-144.06;42.84
11017;BME280;54687;50.800;6.772;2023-03-23T11:52:29;60791.06;;;-144.06;42.37
11017;BME280;54687;50.800;6.772;2023-03-23T11:55:04;60818.31;;;-144.06;41.85
11017;BME280;54687;50.800;6.772;2023-03-23T11:57:35;60828.78;;;-144.06;42.21
11017;BME280;54687;50.800;6.772;2023-03-23T12:00:12;60853.94;;;-144.06;41.98
11017;BME280;54687;50.800;6.772;2023-03-23T12:02:44;60812.03;;;-144.06;41.08
11017;BME280;54687;50.800;6.772;2023-03-23T12:05:30;60824.59;;;-144.06;41.47
11017;BME280;54687;50.800;6.772;2023-03-23T12:08:19;60807.84;;;-144.06;41.13
11017;BME280;54687;50.800;6.772;2023-03-23T12:10:56;60778.50;;;-144.06;41.29
11017;BME280;54687;50.800;6.772;2023-03-23T12:13:35;60799.44;;;-144.06;41.63
11017;BME280;54687;50.800;6.772;2023-03-23T12:16:15;60853.94;;;-144.06;42.00
11017;BME280;54687;50.800;6.772;2023-03-23T12:18:50;60807.84;;;-144.06;42.47
11017;BME280;54687;50.800;6.772;2023-03-23T12:21:24;60816.22;;;-144.06;41.98
11017;BME280;54687;50.800;6.772;2023-03-23T12:24:02;60826.69;;;-144.06;42.12
11017;BME280;54687;50.800;6.772;2023-03-23T12:26:34;60833.00;;;-144.06;42.08
11017;BME280;54687;50.800;6.772;2023-03-23T12:29:19;60881.19;;;-144.06;41.82
11017;BME280;54687;50.800;6.772;2023-03-23T12:31:57;60862.34;;;-144.06;42.00
11017;BME280;54687;50.800;6.772;2023-03-23T12:34:33;60841.38;;;-144.06;41.92
11017;BME280;54687;50.800;6.772;2023-03-23T12:37:14;60858.13;;;-144.06;41.92
11017;BME280;54687;50.800;6.772;2023-03-23T12:39:58;60862.34;;;-144.06;41.63
11017;BME280;54687;50.800;6.772;2023-03-23T12:42:42;60816.22;;;-144.06;42.11
11017;BME280;54687;50.800;6.772;2023-03-23T12:45:19;60782.69;;;-144.06;42.06
11017;BME280;54687;50.800;6.772;2023-03-23T12:47:54;60795.25;;;-144.06;42.24
11017;BME280;54687;50.800;6.772;2023-03-23T12:50:28;60835.09;;;-144.06;42.08
11017;BME280;54687;50.800;6.772;2023-03-23T12:53:02;60826.69;;;-144.06;41.98
11017;BME280;54687;50.800;6.772;2023-03-23T12:55:35;60841.38;;;-144.06;41.67
11017;BME280;54687;50.800;6.772;2023-03-23T12:58:06;60837.19;;;-144.06;42.07